sensor_id;sensor_type;location;lat;lon;timestamp;temperature;humidity
8910;DHT22;4490;49.072;8.804;2023-12-14T00:02:04;8.70;99.90
8910;DHT22;4490;49.072;8.804;2023-12-14T00:04:29;8.70;99.90
8910;DHT22;4490;49.072;8.804;2023-12-14T00:06:55;8.70;99.90
8910;DHT22;4490;49.072;8.804;2023-12-14T00:09:20;8.70;99.90
8910;DHT22;4490;49.072;8.804;2023-12-14T00:11:46;8.70;99.90
8910;DHT22;4490;49.072;8.804;2023-12-14T00:14:12;8.70;99.90
8910;DHT22;4490;49.072;8.804;2023-12-14T00:16:37;8.70;99.90
8910;DHT22;4490;49.072;8.804;2023-12-14T00:19:03;8.70;99.90
8910;DHT22;4490;49.072;8.804;2023-12-14T00:21:29;8.80;99.90
8910;DHT22;4490;49.072;8.804;2023-12-14T00:23:54;8.80;99.90
8910;DHT22;4490;49.072;8.804;2023-12-14T00:26:20;8.80;99.90
8910;DHT22;4490;49.072;8.804;2023-12-14T00:28:45;8.80;99.90
8910;DHT22;4490;49.072;8.804;2023-12-14T00:31:11;8.80;99.90
8910;DHT22;4490;49.072;8.804;2023-12-14T00:33:36;8.80;99.90
8910;DHT22;4490;49.072;8.804;2023-12-14T00:36:02;8.80;99.90
8910;DHT22;4490;49.072;8.804;2023-12-14T00:38:28;8.80;99.90
8910;DHT22;4490;49.072;8.804;2023-12-14T00:40:53;8.80;99.90
8910;DHT22;4490;49.072;8.804;2023-12-14T00:43:19;8.80;99.90
8910;DHT22;4490;49.072;8.804;2023-12-14T00:45:46;8.80;99.90
8910;DHT22;4490;49.072;8.804;2023-12-14T00:48:11;8.80;99.90
8910;DHT22;4490;49.072;8.804;2023-12-14T00:50:37;8.80;99.90
8910;DHT22;4490;49.072;8.804;2023-12-14T00:53:02;8.80;99.90
8910;DHT22;4490;49.072;8.804;2023-12-14T00:55:28;8.70;99.90
8910;DHT22;4490;49.072;8.804;2023-12-14T00:57:53;8.70;99.90
8910;DHT22;4490;49.072;8.804;2023-12-14T01:00:19;8.70;99.90
8910;DHT22;4490;49.072;8.804;2023-12-14T01:02:45;8.80;99.90
8910;DHT22;4490;49.072;8.804;2023-12-14T01:05:10;8.80;99.90
8910;DHT22;4490;49.072;8.804;2023-12-14T01:07:36;8.80;99.90
8910;DHT22;4490;49.072;8.804;2023-12-14T01:10:02;8.80;99.90
8910;DHT22;4490;49.072;8.804;2023-12-14T01:12:28;8.80;99.90
8910;DHT22;4490;49.072;8.804;2023-12-14T01:14:54;8.80;99.90
8910;DHT22;4490;49.072;8.804;2023-12-14T01:17:19;8.80;99.90
8910;DHT22;4490;49.072;8.804;2023-12-14T01:19:45;8.80;99.90
8910;DHT22;4490;49.072;8.804;2023-12-14T01:22:10;8.80;99.90
8910;DHT22;4490;49.072;8.804;2023-12-14T01:24:36;8.80;99.90
8910;DHT22;4490;49.072;8.804;2023-12-14T01:27:02;8.90;99.90
8910;DHT22;4490;49.072;8.804;2023-12-14T01:29:27;8.90;99.90
8910;DHT22;4490;49.072;8.804;2023-12-14T01:31:53;8.90;99.90
8910;DHT22;4490;49.072;8.804;2023-12-14T01:34:19;8.90;99.90
8910;DHT22;4490;49.072;8.804;2023-12-14T01:36:44;9.00;99.90
8910;DHT22;4490;49.072;8.804;2023-12-14T01:39:10;9.00;99.90
8910;DHT22;4490;49.072;8.804;2023-12-14T01:41:35;9.00;99.90
8910;DHT22;4490;49.072;8.804;2023-12-14T01:44:01;9.00;99.90
8910;DHT22;4490;49.072;8.804;2023-12-14T01:46:27;9.00;99.90
8910;DHT22;4490;49.072;8.804;2023-12-14T01:48:52;9.00;99.90
8910;DHT22;4490;49.072;8.804;2023-12-14T01:51:18;9.00;99.90
8910;DHT22;4490;49.072;8.804;2023-12-14T01:53:44;9.00;99.90
8910;DHT22;4490;49.072;8.804;2023-12-14T01:56:10;9.00;99.90
8910;DHT22;4490;49.072;8.804;2023-12-14T01:58:36;9.00;99.90
8910;DHT22;4490;49.072;8.804;2023-12-14T02:01:22;9.00;99.90
8910;DHT22;4490;49.072;8.804;2023-12-14T02:03:51;9.00;99.90
8910;DHT22;4490;49.072;8.804;2023-12-14T02:06:17;9.00;99.90
8910;DHT22;4490;49.072;8.804;2023-12-14T02:08:43;9.00;99.90
8910;DHT22;4490;49.072;8.804;2023-12-14T02:11:09;9.00;99.90
8910;DHT22;4490;49.072;8.804;2023-12-14T02:13:34;9.00;99.90
8910;DHT22;4490;49.072;8.804;2023-12-14T02:16:00;9.00;99.90
8910;DHT22;4490;49.072;8.804;2023-12-14T02:18:25;9.00;99.90
8910;DHT22;4490;49.072;8.804;2023-12-14T02:20:52;9.00;99.90
8910;DHT22;4490;49.072;8.804;2023-12-14T02:23:17;9.00;99.90
8910;DHT22;4490;49.072;8.804;2023-12-14T02:25:43;9.00;99.90
8910;DHT22;4490;49.072;8.804;2023-12-14T02:28:08;9.00;99.90
8910;DHT22;4490;49.072;8.804;2023-12-14T02:30:34;9.00;99.90
8910;DHT22;4490;49.072;8.804;2023-12-14T02:33:00;9.00;99.90
8910;DHT22;4490;49.072;8.804;2023-12-14T02:35:25;9.00;99.90
8910;DHT22;4490;49.072;8.804;2023-12-14T02:37:51;9.00;99.90
8910;DHT22;4490;49.072;8.804;2023-12-14T02:40:17;9.00;99.90
8910;DHT22;4490;49.072;8.804;2023-12-14T02:42:42;9.00;99.90
8910;DHT22;4490;49.072;8.804;2023-12-14T02:45:08;9.00;99.90
8910;DHT22;4490;49.072;8.804;2023-12-14T02:47:34;8.90;99.90
8910;DHT22;4490;49.072;8.804;2023-12-14T02:50:00;8.90;99.90
8910;DHT22;4490;49.072;8.804;2023-12-14T02:52:25;8.90;99.90
8910;DHT22;4490;49.072;8.804;2023-12-14T02:54:51;9.00;99.90
8910;DHT22;4490;49.072;8.804;2023-12-14T02:57:17;9.00;99.90
8910;DHT22;4490;49.072;8.804;2023-12-14T02:59:42;9.00;99.90
8910;DHT22;4490;49.072;8.804;2023-12-14T03:02:08;9.00;99.90
8910;DHT22;4490;49.072;8.804;2023-12-14T03:04:34;9.00;99.90
8910;DHT22;4490;49.072;8.804;2023-12-14T03:07:01;9.00;99.90
8910;DHT22;4490;49.072;8.804;2023-12-14T03:09:31;9.00;99.90
8910;DHT22;4490;49.072;8.804;2023-12-14T03:11:57;9.00;99.90
8910;DHT22;4490;49.072;8.804;2023-12-14T03:14:23;9.00;99.90
8910;DHT22;4490;49.072;8.804;2023-12-14T03:16:48;9.00;99.90
8910;DHT22;4490;49.072;8.804;2023-12-14T03:19:14;9.00;99.90
8910;DHT22;4490;49.072;8.804;2023-12-14T03:21:41;9.00;99.90
8910;DHT22;4490;49.072;8.804;2023-12-14T03:24:07;9.00;99.90
8910;DHT22;4490;49.072;8.804;2023-12-14T03:26:32;9.00;99.90
8910;DHT22;4490;49.072;8.804;2023-12-14T03:28:58;9.00;99.90
8910;DHT22;4490;49.072;8.804;2023-12-14T03:31:24;9.00;99.90
8910;DHT22;4490;49.072;8.804;2023-12-14T03:33:49;9.00;99.90
8910;DHT22;4490;49.072;8.804;2023-12-14T03:36:15;9.00;99.90
8910;DHT22;4490;49.072;8.804;2023-12-14T03:38:40;9.10;99.90
8910;DHT22;4490;49.072;8.804;2023-12-14T03:41:06;9.10;99.90
8910;DHT22;4490;49.072;8.804;2023-12-14T03:43:32;9.10;99.90
8910;DHT22;4490;49.072;8.804;2023-12-14T03:45:57;9.10;99.90
8910;DHT22;4490;49.072;8.804;2023-12-14T03:48:23;9.10;99.90
8910;DHT22;4490;49.072;8.804;2023-12-14T03:50:48;9.00;99.90
8910;DHT22;4490;49.072;8.804;2023-12-14T03:53:14;9.10;99.90
8910;DHT22;4490;49.072;8.804;2023-12-14T03:55:39;9.10;99.90
8910;DHT22;4490;49.072;8.804;2023-12-14T03:58:05;9.10;99.90
8910;DHT22;4490;49.072;8.804;2023-12-14T04:00:31;9.10;99.90
8910;DHT22;4490;49.072;8.804;2023-12-14T04:02:56;9.10;99.90
8910;DHT22;4490;49.072;8.804;2023-12-14T04:05:22;9.10;99.90
8910;DHT22;4490;49.072;8.804;2023-12-14T04:07:48;9.10;99.90
8910;DHT22;4490;49.072;8.804;2023-12-14T04:10:13;9.10;99.90
8910;DHT22;4490;49.072;8.804;2023-12-14T04:12:39;9.10;99.90
8910;DHT22;4490;49.072;8.804;2023-12-14T04:15:06;9.00;99.90
8910;DHT22;4490;49.072;8.804;2023-12-14T04:17:32;9.00;99.90
8910;DHT22;4490;49.072;8.804;2023-12-14T04:19:58;9.00;99.90
8910;DHT22;4490;49.072;8.804;2023-12-14T04:22:24;9.00;99.90
8910;DHT22;4490;49.072;8.804;2023-12-14T04:24:53;9.10;99.90
8910;DHT22;4490;49.072;8.804;2023-12-14T04:27:18;9.10;99.90
8910;DHT22;4490;49.072;8.804;2023-12-14T04:29:44;9.10;99.90
8910;DHT22;4490;49.072;8.804;2023-12-14T04:32:10;9.10;99.90
8910;DHT22;4490;49.072;8.804;2023-12-14T04:34:35;9.10;99.90
8910;DHT22;4490;49.072;8.804;2023-12-14T04:37:01;9.10;99.90
8910;DHT22;4490;49.072;8.804;2023-12-14T04:39:27;9.10;99.90
8910;DHT22;4490;49.072;8.804;2023-12-14T04:41:53;9.10;99.90
8910;DHT22;4490;49.072;8.804;2023-12-14T04:44:22;9.10;99.90
8910;DHT22;4490;49.072;8.804;2023-12-14T04:46:48;9.10;99.90
8910;DHT22;4490;49.072;8.804;2023-12-14T04:49:14;9.10;99.90
8910;DHT22;4490;49.072;8.804;2023-12-14T04:51:40;9.10;99.90
8910;DHT22;4490;49.072;8.804;2023-12-14T04:54:05;9.10;99.90
8910;DHT22;4490;49.072;8.804;2023-12-14T04:56:31;9.10;99.90
8910;DHT22;4490;49.072;8.804;2023-12-14T04:58:56;9.10;99.90
8910;DHT22;4490;49.072;8.804;2023-12-14T05:01:22;9.10;99.90
8910;DHT22;4490;49.072;8.804;2023-12-14T05:03:48;9.10;99.90
8910;DHT22;4490;49.072;8.804;2023-12-14T05:06:13;9.10;99.90
8910;DHT22;4490;49.072;8.804;2023-12-14T05:08:39;9.20;99.90
8910;DHT22;4490;49.072;8.804;2023-12-14T05:11:05;9.20;99.90
8910;DHT22;4490;49.072;8.804;2023-12-14T05:13:30;9.20;99.90
8910;DHT22;4490;49.072;8.804;2023-12-14T05:15:56;9.30;99.90
8910;DHT22;4490;49.072;8.804;2023-12-14T05:18:25;9.30;99.90
8910;DHT22;4490;49.072;8.804;2023-12-14T05:20:51;9.30;99.90
8910;DHT22;4490;49.072;8.804;2023-12-14T05:23:16;9.20;99.90
8910;DHT22;4490;49.072;8.804;2023-12-14T05:25:42;9.20;99.90
8910;DHT22;4490;49.072;8.804;2023-12-14T05:28:08;9.20;99.90
8910;DHT22;4490;49.072;8.804;2023-12-14T05:30:33;9.20;99.90
8910;DHT22;4490;49.072;8.804;2023-12-14T05:32:59;9.30;99.90
8910;DHT22;4490;49.072;8.804;2023-12-14T05:35:24;9.20;99.90
8910;DHT22;4490;49.072;8.804;2023-12-14T05:37:50;9.30;99.90
8910;DHT22;4490;49.072;8.804;2023-12-14T05:40:16;9.30;99.90
8910;DHT22;4490;49.072;8.804;2023-12-14T05:42:42;9.30;99.90
8910;DHT22;4490;49.072;8.804;2023-12-14T05:45:08;9.30;99.90
8910;DHT22;4490;49.072;8.804;2023-12-14T05:47:34;9.30;99.90
8910;DHT22;4490;49.072;8.804;2023-12-14T05:50:00;9.30;99.90
8910;DHT22;4490;49.072;8.804;2023-12-14T05:52:27;9.30;99.90
8910;DHT22;4490;49.072;8.804;2023-12-14T05:54:52;9.30;99.90
8910;DHT22;4490;49.072;8.804;2023-12-14T05:57:18;9.30;99.90
8910;DHT22;4490;49.072;8.804;2023-12-14T05:59:44;9.30;99.90
8910;DHT22;4490;49.072;8.804;2023-12-14T06:02:09;9.30;99.90
8910;DHT22;4490;49.072;8.804;2023-12-14T06:04:35;9.30;99.90
8910;DHT22;4490;49.072;8.804;2023-12-14T06:07:01;9.30;99.90
8910;DHT22;4490;49.072;8.804;2023-12-14T06:09:26;9.30;99.90
8910;DHT22;4490;49.072;8.804;2023-12-14T06:11:57;9.30;99.90
8910;DHT22;4490;49.072;8.804;2023-12-14T06:14:23;9.30;99.90
8910;DHT22;4490;49.072;8.804;2023-12-14T06:16:48;9.30;99.90
8910;DHT22;4490;49.072;8.804;2023-12-14T06:19:14;9.30;99.90
8910;DHT22;4490;49.072;8.804;2023-12-14T06:21:40;9.20;99.90
8910;DHT22;4490;49.072;8.804;2023-12-14T06:24:06;9.20;99.90
8910;DHT22;4490;49.072;8.804;2023-12-14T06:26:31;9.20;99.90
8910;DHT22;4490;49.072;8.804;2023-12-14T06:28:57;9.20;99.90
8910;DHT22;4490;49.072;8.804;2023-12-14T06:31:23;9.30;99.90
8910;DHT22;4490;49.072;8.804;2023-12-14T06:33:48;9.20;99.90
8910;DHT22;4490;49.072;8.804;2023-12-14T06:36:16;9.30;99.90
8910;DHT22;4490;49.072;8.804;2023-12-14T06:38:43;9.30;99.90
8910;DHT22;4490;49.072;8.804;2023-12-14T06:41:18;9.30;99.90
8910;DHT22;4490;49.072;8.804;2023-12-14T06:43:44;9.30;99.90
8910;DHT22;4490;49.072;8.804;2023-12-14T06:46:09;9.20;99.90
8910;DHT22;4490;49.072;8.804;2023-12-14T06:48:35;9.20;99.90
8910;DHT22;4490;49.072;8.804;2023-12-14T06:51:00;9.20;99.90
8910;DHT22;4490;49.072;8.804;2023-12-14T06:53:26;9.10;99.90
8910;DHT22;4490;49.072;8.804;2023-12-14T06:55:52;9.10;99.90
8910;DHT22;4490;49.072;8.804;2023-12-14T06:58:17;9.10;99.90
8910;DHT22;4490;49.072;8.804;2023-12-14T07:00:43;9.00;99.90
8910;DHT22;4490;49.072;8.804;2023-12-14T07:03:09;9.00;99.90
8910;DHT22;4490;49.072;8.804;2023-12-14T07:05:34;9.00;99.90
8910;DHT22;4490;49.072;8.804;2023-12-14T07:08:00;9.00;99.90
8910;DHT22;4490;49.072;8.804;2023-12-14T07:10:26;8.90;99.90
8910;DHT22;4490;49.072;8.804;2023-12-14T07:12:51;8.90;99.90
8910;DHT22;4490;49.072;8.804;2023-12-14T07:15:18;8.90;99.90
8910;DHT22;4490;49.072;8.804;2023-12-14T07:17:44;8.90;99.90
8910;DHT22;4490;49.072;8.804;2023-12-14T07:20:10;8.90;99.90
8910;DHT22;4490;49.072;8.804;2023-12-14T07:22:36;8.90;99.90
8910;DHT22;4490;49.072;8.804;2023-12-14T07:25:03;8.90;99.90
8910;DHT22;4490;49.072;8.804;2023-12-14T07:27:28;8.90;99.90
8910;DHT22;4490;49.072;8.804;2023-12-14T07:29:54;9.00;99.90
8910;DHT22;4490;49.072;8.804;2023-12-14T07:32:20;9.00;99.90
8910;DHT22;4490;49.072;8.804;2023-12-14T07:34:46;9.00;99.90
8910;DHT22;4490;49.072;8.804;2023-12-14T07:37:13;9.10;99.90
8910;DHT22;4490;49.072;8.804;2023-12-14T07:39:38;9.10;99.90
8910;DHT22;4490;49.072;8.804;2023-12-14T07:42:05;9.10;99.90
8910;DHT22;4490;49.072;8.804;2023-12-14T07:44:31;9.10;99.90
8910;DHT22;4490;49.072;8.804;2023-12-14T07:47:01;9.10;99.90
8910;DHT22;4490;49.072;8.804;2023-12-14T07:49:27;9.00;99.90
8910;DHT22;4490;49.072;8.804;2023-12-14T07:51:53;9.00;99.90
8910;DHT22;4490;49.072;8.804;2023-12-14T07:54:19;9.10;99.90
8910;DHT22;4490;49.072;8.804;2023-12-14T07:56:44;9.10;99.90
8910;DHT22;4490;49.072;8.804;2023-12-14T07:59:11;9.10;99.90
8910;DHT22;4490;49.072;8.804;2023-12-14T08:01:36;9.00;99.90
8910;DHT22;4490;49.072;8.804;2023-12-14T08:04:03;9.00;99.90
8910;DHT22;4490;49.072;8.804;2023-12-14T08:06:29;9.10;99.90
8910;DHT22;4490;49.072;8.804;2023-12-14T08:08:56;9.10;99.90
8910;DHT22;4490;49.072;8.804;2023-12-14T08:11:27;9.10;99.90
8910;DHT22;4490;49.072;8.804;2023-12-14T08:13:53;9.10;99.90
8910;DHT22;4490;49.072;8.804;2023-12-14T08:16:19;9.20;99.90
8910;DHT22;4490;49.072;8.804;2023-12-14T08:18:45;9.20;99.90
8910;DHT22;4490;49.072;8.804;2023-12-14T08:21:11;9.20;99.90
8910;DHT22;4490;49.072;8.804;2023-12-14T08:23:37;9.30;99.90
8910;DHT22;4490;49.072;8.804;2023-12-14T08:26:03;9.30;99.90
8910;DHT22;4490;49.072;8.804;2023-12-14T08:28:29;9.30;99.90
8910;DHT22;4490;49.072;8.804;2023-12-14T08:30:55;9.30;99.90
8910;DHT22;4490;49.072;8.804;2023-12-14T08:33:21;9.30;99.90
8910;DHT22;4490;49.072;8.804;2023-12-14T08:35:46;9.30;99.90
8910;DHT22;4490;49.072;8.804;2023-12-14T08:38:12;9.30;99.90
8910;DHT22;4490;49.072;8.804;2023-12-14T08:40:38;9.30;99.90
8910;DHT22;4490;49.072;8.804;2023-12-14T08:43:04;9.40;99.90
8910;DHT22;4490;49.072;8.804;2023-12-14T08:45:29;9.40;99.90
8910;DHT22;4490;49.072;8.804;2023-12-14T08:47:56;9.40;99.90
8910;DHT22;4490;49.072;8.804;2023-12-14T08:50:22;9.50;99.90
8910;DHT22;4490;49.072;8.804;2023-12-14T08:52:48;9.50;99.90
8910;DHT22;4490;49.072;8.804;2023-12-14T08:55:13;9.50;99.90
8910;DHT22;4490;49.072;8.804;2023-12-14T08:57:39;9.50;99.90
8910;DHT22;4490;49.072;8.804;2023-12-14T09:00:06;9.50;99.90
8910;DHT22;4490;49.072;8.804;2023-12-14T09:02:32;9.50;99.90
8910;DHT22;4490;49.072;8.804;2023-12-14T09:04:58;9.50;99.90
8910;DHT22;4490;49.072;8.804;2023-12-14T09:07:24;9.50;99.90
8910;DHT22;4490;49.072;8.804;2023-12-14T09:09:50;9.50;99.90
8910;DHT22;4490;49.072;8.804;2023-12-14T09:12:15;9.50;99.90
8910;DHT22;4490;49.072;8.804;2023-12-14T09:14:41;9.50;99.90
8910;DHT22;4490;49.072;8.804;2023-12-14T09:17:07;9.50;99.90
8910;DHT22;4490;49.072;8.804;2023-12-14T09:19:32;9.50;99.90
8910;DHT22;4490;49.072;8.804;2023-12-14T09:21:58;9.50;99.90
8910;DHT22;4490;49.072;8.804;2023-12-14T09:24:24;9.50;99.90
8910;DHT22;4490;49.072;8.804;2023-12-14T09:26:49;9.50;99.90
8910;DHT22;4490;49.072;8.804;2023-12-14T09:29:15;9.60;99.90
8910;DHT22;4490;49.072;8.804;2023-12-14T09:31:42;9.60;99.90
8910;DHT22;4490;49.072;8.804;2023-12-14T09:34:09;9.60;99.90
8910;DHT22;4490;49.072;8.804;2023-12-14T09:36:35;9.60;99.90
8910;DHT22;4490;49.072;8.804;2023-12-14T09:39:00;9.60;99.90
8910;DHT22;4490;49.072;8.804;2023-12-14T09:41:26;9.60;99.90
8910;DHT22;4490;49.072;8.804;2023-12-14T09:43:52;9.70;99.90
8910;DHT22;4490;49.072;8.804;2023-12-14T09:46:18;9.60;99.90
8910;DHT22;4490;49.072;8.804;2023-12-14T09:48:48;9.70;99.90
8910;DHT22;4490;49.072;8.804;2023-12-14T09:51:16;9.70;99.90
8910;DHT22;4490;49.072;8.804;2023-12-14T09:53:41;9.70;99.90
8910;DHT22;4490;49.072;8.804;2023-12-14T09:56:07;9.70;99.90
8910;DHT22;4490;49.072;8.804;2023-12-14T09:58:33;9.70;99.90
8910;DHT22;4490;49.072;8.804;2023-12-14T10:00:58;9.70;99.90
8910;DHT22;4490;49.072;8.804;2023-12-14T10:03:28;9.70;99.90
8910;DHT22;4490;49.072;8.804;2023-12-14T10:05:55;9.80;99.90
8910;DHT22;4490;49.072;8.804;2023-12-14T10:08:21;9.80;99.90
8910;DHT22;4490;49.072;8.804;2023-12-14T10:10:49;9.80;99.90
8910;DHT22;4490;49.072;8.804;2023-12-14T10:13:16;9.80;99.90
8910;DHT22;4490;49.072;8.804;2023-12-14T10:15:47;9.80;99.90
8910;DHT22;4490;49.072;8.804;2023-12-14T10:18:26;9.80;99.90
8910;DHT22;4490;49.072;8.804;2023-12-14T10:20:52;9.90;99.90
8910;DHT22;4490;49.072;8.804;2023-12-14T10:23:19;9.80;99.90
8910;DHT22;4490;49.072;8.804;2023-12-14T10:25:45;9.90;99.90
8910;DHT22;4490;49.072;8.804;2023-12-14T10:28:14;9.90;99.90
8910;DHT22;4490;49.072;8.804;2023-12-14T10:30:43;9.90;99.90
8910;DHT22;4490;49.072;8.804;2023-12-14T10:33:09;9.90;99.90
8910;DHT22;4490;49.072;8.804;2023-12-14T10:35:35;10.00;99.90
8910;DHT22;4490;49.072;8.804;2023-12-14T10:38:04;10.00;99.90
8910;DHT22;4490;49.072;8.804;2023-12-14T10:40:34;10.00;99.90
8910;DHT22;4490;49.072;8.804;2023-12-14T10:43:03;10.00;99.90
8910;DHT22;4490;49.072;8.804;2023-12-14T10:45:32;10.10;99.90
8910;DHT22;4490;49.072;8.804;2023-12-14T10:47:59;10.10;99.90
8910;DHT22;4490;49.072;8.804;2023-12-14T10:50:30;10.10;99.90
8910;DHT22;4490;49.072;8.804;2023-12-14T10:52:57;10.20;99.90
8910;DHT22;4490;49.072;8.804;2023-12-14T10:58:03;10.30;99.90
8910;DHT22;4490;49.072;8.804;2023-12-14T11:00:28;10.40;99.90
8910;DHT22;4490;49.072;8.804;2023-12-14T11:02:54;10.40;99.90
8910;DHT22;4490;49.072;8.804;2023-12-14T11:05:22;10.40;99.90
8910;DHT22;4490;49.072;8.804;2023-12-14T11:08:02;10.40;99.90
8910;DHT22;4490;49.072;8.804;2023-12-14T11:10:42;10.50;99.90
8910;DHT22;4490;49.072;8.804;2023-12-14T11:13:12;10.50;99.90
8910;DHT22;4490;49.072;8.804;2023-12-14T11:15:50;10.50;99.90
8910;DHT22;4490;49.072;8.804;2023-12-14T11:18:22;10.50;99.90
8910;DHT22;4490;49.072;8.804;2023-12-14T11:20:59;10.40;99.90
8910;DHT22;4490;49.072;8.804;2023-12-14T11:25:53;10.40;99.90
8910;DHT22;4490;49.072;8.804;2023-12-14T11:28:19;10.30;99.90
8910;DHT22;4490;49.072;8.804;2023-12-14T11:30:46;10.30;99.90
8910;DHT22;4490;49.072;8.804;2023-12-14T11:33:13;10.20;99.90
8910;DHT22;4490;49.072;8.804;2023-12-14T11:35:38;10.20;99.90
8910;DHT22;4490;49.072;8.804;2023-12-14T11:38:04;10.20;99.90
8910;DHT22;4490;49.072;8.804;2023-12-14T11:40:36;10.20;99.90
8910;DHT22;4490;49.072;8.804;2023-12-14T11:43:03;10.20;99.90
8910;DHT22;4490;49.072;8.804;2023-12-14T11:45:39;10.30;99.90
8910;DHT22;4490;49.072;8.804;2023-12-14T11:48:07;10.20;99.90
8910;DHT22;4490;49.072;8.804;2023-12-14T11:50:34;10.20;99.90
8910;DHT22;4490;49.072;8.804;2023-12-14T11:53:03;10.20;99.90
8910;DHT22;4490;49.072;8.804;2023-12-14T11:55:30;10.20;99.90
8910;DHT22;4490;49.072;8.804;2023-12-14T11:57:56;10.20;99.90
8910;DHT22;4490;49.072;8.804;2023-12-14T12:00:27;10.20;99.90
8910;DHT22;4490;49.072;8.804;2023-12-14T12:03:11;10.20;99.90
8910;DHT22;4490;49.072;8.804;2023-12-14T12:05:45;10.20;99.90
8910;DHT22;4490;49.072;8.804;2023-12-14T12:08:12;10.20;99.90
8910;DHT22;4490;49.072;8.804;2023-12-14T12:10:39;10.20;99.90
8910;DHT22;4490;49.072;8.804;2023-12-14T12:13:11;10.10;99.90
8910;DHT22;4490;49.072;8.804;2023-12-14T12:15:37;10.10;99.90
8910;DHT22;4490;49.072;8.804;2023-12-14T12:18:07;10.00;99.90
8910;DHT22;4490;49.072;8.804;2023-12-14T12:20:34;10.00;99.90
8910;DHT22;4490;49.072;8.804;2023-12-14T12:23:01;9.90;99.90
8910;DHT22;4490;49.072;8.804;2023-12-14T12:25:27;10.00;99.90
8910;DHT22;4490;49.072;8.804;2023-12-14T12:28:00;9.90;99.90
8910;DHT22;4490;49.072;8.804;2023-12-14T12:30:26;9.90;99.90
8910;DHT22;4490;49.072;8.804;2023-12-14T12:32:52;9.90;99.90
8910;DHT22;4490;49.072;8.804;2023-12-14T12:35:19;9.90;99.90
8910;DHT22;4490;49.072;8.804;2023-12-14T12:37:45;9.90;99.90
8910;DHT22;4490;49.072;8.804;2023-12-14T12:40:10;9.90;99.90
8910;DHT22;4490;49.072;8.804;2023-12-14T12:42:36;9.90;99.90
8910;DHT22;4490;49.072;8.804;2023-12-14T12:45:02;9.90;99.90
8910;DHT22;4490;49.072;8.804;2023-12-14T12:47:30;10.00;99.90
8910;DHT22;4490;49.072;8.804;2023-12-14T12:49:55;9.90;99.90
8910;DHT22;4490;49.072;8.804;2023-12-14T12:52:21;10.00;99.90
8910;DHT22;4490;49.072;8.804;2023-12-14T12:54:46;10.00;99.90
8910;DHT22;4490;49.072;8.804;2023-12-14T12:57:12;10.00;99.90
8910;DHT22;4490;49.072;8.804;2023-12-14T12:59:38;10.00;99.90
8910;DHT22;4490;49.072;8.804;2023-12-14T13:02:04;10.00;99.90
8910;DHT22;4490;49.072;8.804;2023-12-14T13:04:29;10.00;99.90
8910;DHT22;4490;49.072;8.804;2023-12-14T13:06:56;10.00;99.90
8910;DHT22;4490;49.072;8.804;2023-12-14T13:09:22;10.00;99.90
8910;DHT22;4490;49.072;8.804;2023-12-14T13:11:48;10.00;99.90
8910;DHT22;4490;49.072;8.804;2023-12-14T13:14:14;10.00;99.90
8910;DHT22;4490;49.072;8.804;2023-12-14T13:16:40;10.00;99.90
8910;DHT22;4490;49.072;8.804;2023-12-14T13:19:06;10.00;99.90
8910;DHT22;4490;49.072;8.804;2023-12-14T13:21:32;10.00;99.90
8910;DHT22;4490;49.072;8.804;2023-12-14T13:24:02;10.00;99.90
8910;DHT22;4490;49.072;8.804;2023-12-14T13:26:29;10.00;99.90
8910;DHT22;4490;49.072;8.804;2023-12-14T13:28:55;10.00;99.90
8910;DHT22;4490;49.072;8.804;2023-12-14T13:31:21;10.00;99.90
8910;DHT22;4490;49.072;8.804;2023-12-14T13:33:47;10.00;99.90
8910;DHT22;4490;49.072;8.804;2023-12-14T13:36:14;10.00;99.90
8910;DHT22;4490;49.072;8.804;2023-12-14T13:38:41;10.00;99.90
8910;DHT22;4490;49.072;8.804;2023-12-14T13:41:10;10.10;99.90
8910;DHT22;4490;49.072;8.804;2023-12-14T13:43:35;10.10;99.90
8910;DHT22;4490;49.072;8.804;2023-12-14T13:46:01;10.10;99.90
8910;DHT22;4490;49.072;8.804;2023-12-14T13:48:27;10.10;99.90
8910;DHT22;4490;49.072;8.804;2023-12-14T13:50:56;10.20;99.90
8910;DHT22;4490;49.072;8.804;2023-12-14T13:53:22;10.20;99.90
8910;DHT22;4490;49.072;8.804;2023-12-14T13:55:49;10.20;99.90
8910;DHT22;4490;49.072;8.804;2023-12-14T13:58:15;10.20;99.90
8910;DHT22;4490;49.072;8.804;2023-12-14T14:00:41;10.20;99.90
8910;DHT22;4490;49.072;8.804;2023-12-14T14:03:09;10.20;99.90
8910;DHT22;4490;49.072;8.804;2023-12-14T14:05:34;10.20;99.90
8910;DHT22;4490;49.072;8.804;2023-12-14T14:08:00;10.20;99.90
8910;DHT22;4490;49.072;8.804;2023-12-14T14:10:26;10.20;99.90
8910;DHT22;4490;49.072;8.804;2023-12-14T14:12:52;10.30;99.90
8910;DHT22;4490;49.072;8.804;2023-12-14T14:15:17;10.30;99.90
8910;DHT22;4490;49.072;8.804;2023-12-14T14:17:45;10.30;99.90
8910;DHT22;4490;49.072;8.804;2023-12-14T14:20:13;10.30;99.90
8910;DHT22;4490;49.072;8.804;2023-12-14T14:22:39;10.30;99.90
8910;DHT22;4490;49.072;8.804;2023-12-14T14:25:05;10.30;99.90
8910;DHT22;4490;49.072;8.804;2023-12-14T14:27:35;10.20;99.90
8910;DHT22;4490;49.072;8.804;2023-12-14T14:30:00;10.20;99.90
8910;DHT22;4490;49.072;8.804;2023-12-14T14:32:26;10.20;99.90
8910;DHT22;4490;49.072;8.804;2023-12-14T14:34:52;10.20;99.90
8910;DHT22;4490;49.072;8.804;2023-12-14T14:37:20;10.20;99.90
8910;DHT22;4490;49.072;8.804;2023-12-14T14:39:45;10.20;99.90
8910;DHT22;4490;49.072;8.804;2023-12-14T14:42:11;10.10;99.90
8910;DHT22;4490;49.072;8.804;2023-12-14T14:44:37;10.10;99.90
8910;DHT22;4490;49.072;8.804;2023-12-14T14:47:02;10.10;99.90
8910;DHT22;4490;49.072;8.804;2023-12-14T14:49:28;10.10;99.90
8910;DHT22;4490;49.072;8.804;2023-12-14T14:51:54;10.10;99.90
8910;DHT22;4490;49.072;8.804;2023-12-14T14:54:20;10.10;99.90
8910;DHT22;4490;49.072;8.804;2023-12-14T14:56:46;10.10;99.90
8910;DHT22;4490;49.072;8.804;2023-12-14T14:59:11;10.00;99.90
8910;DHT22;4490;49.072;8.804;2023-12-14T15:01:41;10.00;99.90
8910;DHT22;4490;49.072;8.804;2023-12-14T15:04:07;10.00;99.90
8910;DHT22;4490;49.072;8.804;2023-12-14T15:06:32;10.00;99.90
8910;DHT22;4490;49.072;8.804;2023-12-14T15:08:59;10.00;99.90
8910;DHT22;4490;49.072;8.804;2023-12-14T15:11:25;10.00;99.90
8910;DHT22;4490;49.072;8.804;2023-12-14T15:13:51;10.00;99.90
8910;DHT22;4490;49.072;8.804;2023-12-14T15:16:17;10.00;99.90
8910;DHT22;4490;49.072;8.804;2023-12-14T15:18:43;10.00;99.90
8910;DHT22;4490;49.072;8.804;2023-12-14T15:21:09;9.90;99.90
8910;DHT22;4490;49.072;8.804;2023-12-14T15:23:35;9.90;99.90
8910;DHT22;4490;49.072;8.804;2023-12-14T15:26:00;9.90;99.90
8910;DHT22;4490;49.072;8.804;2023-12-14T15:28:26;9.90;99.90
8910;DHT22;4490;49.072;8.804;2023-12-14T15:30:52;9.90;99.90
8910;DHT22;4490;49.072;8.804;2023-12-14T15:33:17;9.90;99.90
8910;DHT22;4490;49.072;8.804;2023-12-14T15:35:43;9.80;99.90
8910;DHT22;4490;49.072;8.804;2023-12-14T15:38:09;9.80;99.90
8910;DHT22;4490;49.072;8.804;2023-12-14T15:40:35;9.80;99.90
8910;DHT22;4490;49.072;8.804;2023-12-14T15:43:04;9.70;99.90
8910;DHT22;4490;49.072;8.804;2023-12-14T15:45:29;9.70;99.90
8910;DHT22;4490;49.072;8.804;2023-12-14T15:48:00;9.80;99.90
8910;DHT22;4490;49.072;8.804;2023-12-14T15:50:26;9.70;99.90
8910;DHT22;4490;49.072;8.804;2023-12-14T15:52:53;9.70;99.90
8910;DHT22;4490;49.072;8.804;2023-12-14T15:55:21;9.70;99.90
8910;DHT22;4490;49.072;8.804;2023-12-14T15:57:50;9.60;99.90
8910;DHT22;4490;49.072;8.804;2023-12-14T16:00:17;9.70;99.90
8910;DHT22;4490;49.072;8.804;2023-12-14T16:02:42;9.70;99.90
8910;DHT22;4490;49.072;8.804;2023-12-14T16:05:08;9.70;99.90
8910;DHT22;4490;49.072;8.804;2023-12-14T16:07:35;9.60;99.90
8910;DHT22;4490;49.072;8.804;2023-12-14T16:10:01;9.60;99.90
8910;DHT22;4490;49.072;8.804;2023-12-14T16:12:26;9.60;99.90
8910;DHT22;4490;49.072;8.804;2023-12-14T16:14:52;9.60;99.90